createdAt,value
2023-08-24T00:02:23.148Z,22.20
2023-08-24T00:04:50.861Z,22.18
2023-08-24T00:07:21.158Z,22.13
2023-08-24T00:09:49.252Z,22.14
2023-08-24T00:12:16.667Z,22.07
2023-08-24T00:14:44.130Z,22.04
2023-08-24T00:17:14.008Z,22.00
2023-08-24T00:19:43.403Z,21.99
2023-08-24T00:22:11.272Z,22.02
2023-08-24T00:24:39.073Z,22.02
2023-08-24T00:27:06.683Z,22.01
2023-08-24T00:29:34.857Z,22.01
2023-08-24T00:32:03.124Z,22.00
2023-08-24T00:34:31.173Z,21.95
2023-08-24T00:36:59.032Z,21.94
2023-08-24T00:39:26.885Z,21.91
2023-08-24T00:41:54.713Z,21.81
2023-08-24T00:44:21.791Z,21.75
2023-08-24T00:46:49.899Z,21.70
2023-08-24T00:49:17.261Z,21.70
2023-08-24T00:51:44.824Z,21.73
2023-08-24T00:54:12.289Z,21.72
2023-08-24T00:56:39.721Z,21.72
2023-08-24T00:59:06.791Z,21.75
2023-08-24T01:01:38.249Z,21.74
2023-08-24T01:04:06.082Z,21.78
2023-08-24T01:06:34.052Z,21.75
2023-08-24T01:09:01.103Z,21.70
2023-08-24T01:11:28.412Z,21.68
2023-08-24T01:14:24.948Z,21.66
2023-08-24T01:16:55.186Z,21.63
2023-08-24T01:19:30.969Z,21.60
2023-08-24T01:22:03.899Z,21.63
2023-08-24T01:24:38.050Z,21.64
2023-08-24T01:27:06.101Z,21.65
2023-08-24T01:29:33.303Z,21.64
2023-08-24T01:32:02.884Z,21.60
2023-08-24T01:34:29.844Z,21.61
2023-08-24T01:36:57.269Z,21.59
2023-08-24T01:39:28.081Z,21.61
2023-08-24T01:41:57.422Z,21.58
2023-08-24T01:44:26.689Z,21.56
2023-08-24T01:46:54.593Z,21.55
2023-08-24T01:49:22.020Z,21.48
2023-08-24T01:51:49.991Z,21.41
2023-08-24T01:54:17.090Z,21.37
2023-08-24T01:56:44.378Z,21.34
2023-08-24T01:59:11.360Z,21.36
2023-08-24T02:01:38.990Z,21.36
2023-08-24T02:04:05.988Z,21.34
2023-08-24T02:06:33.247Z,21.34
2023-08-24T02:09:00.331Z,21.31
2023-08-24T02:11:32.713Z,21.30
2023-08-24T02:14:01.932Z,21.30
2023-08-24T02:16:29.384Z,21.29
2023-08-24T02:18:56.642Z,21.29
2023-08-24T02:21:24.790Z,21.27
2023-08-24T02:23:54.109Z,21.24
2023-08-24T02:26:22.535Z,21.19
2023-08-24T02:28:51.869Z,21.21
2023-08-24T02:31:21.648Z,21.21
2023-08-24T02:33:50.225Z,21.20
2023-08-24T02:36:18.220Z,21.19
2023-08-24T02:38:45.238Z,21.22
2023-08-24T02:41:13.831Z,21.19
2023-08-24T02:43:42.365Z,21.14
2023-08-24T02:46:11.505Z,21.08
2023-08-24T02:48:38.557Z,21.02
2023-08-24T02:51:06.473Z,20.96
2023-08-24T02:53:33.820Z,20.94
2023-08-24T02:56:02.098Z,20.90
2023-08-24T02:58:29.352Z,20.88
2023-08-24T03:00:57.311Z,20.88
2023-08-24T03:03:25.628Z,20.85
2023-08-24T03:05:56.956Z,20.83
2023-08-24T03:08:24.359Z,20.81
2023-08-24T03:10:51.975Z,20.78
2023-08-24T03:13:22.297Z,20.74
2023-08-24T03:15:49.643Z,20.74
2023-08-24T03:18:17.824Z,20.74
2023-08-24T03:20:46.311Z,20.72
2023-08-24T03:23:15.403Z,20.73
2023-08-24T03:25:43.249Z,20.72
2023-08-24T03:28:10.893Z,20.69
2023-08-24T03:30:46.427Z,20.68
2023-08-24T03:33:13.931Z,20.63
2023-08-24T03:35:43.621Z,20.63
2023-08-24T03:38:10.723Z,20.60
2023-08-24T03:40:38.734Z,20.55
2023-08-24T03:43:05.697Z,20.54
2023-08-24T03:45:34.033Z,20.52
2023-08-24T03:48:01.924Z,20.51
2023-08-24T03:50:29.478Z,20.47
2023-08-24T03:52:56.966Z,20.45
2023-08-24T03:55:25.069Z,20.40
2023-08-24T03:57:53.109Z,20.36
2023-08-24T04:00:21.143Z,20.35
2023-08-24T04:02:50.795Z,20.34
2023-08-24T04:05:23.922Z,20.34
2023-08-24T04:07:51.133Z,20.36
2023-08-24T04:10:18.829Z,20.36
2023-08-24T04:12:46.009Z,20.35
2023-08-24T04:15:14.049Z,20.35
2023-08-24T04:17:44.768Z,20.32
2023-08-24T04:20:14.496Z,20.30
2023-08-24T04:22:41.605Z,20.32
2023-08-24T04:25:11.150Z,20.32
2023-08-24T04:27:38.229Z,20.35
2023-08-24T04:30:05.971Z,20.35
2023-08-24T04:32:33.745Z,20.38
2023-08-24T04:35:02.033Z,20.39
2023-08-24T04:37:29.192Z,20.42
2023-08-24T04:39:56.565Z,20.45
2023-08-24T04:42:23.572Z,20.50
2023-08-24T04:44:51.860Z,20.51
2023-08-24T04:47:21.221Z,20.60
2023-08-24T04:49:48.480Z,20.64
2023-08-24T04:52:17.745Z,20.76
2023-08-24T04:54:45.013Z,20.83
2023-08-24T04:57:11.974Z,20.89
2023-08-24T04:59:39.659Z,20.95
2023-08-24T05:02:06.909Z,21.00
2023-08-24T05:04:34.288Z,21.09
2023-08-24T05:07:01.578Z,21.16
2023-08-24T05:09:29.473Z,21.24
2023-08-24T05:11:56.426Z,21.35
2023-08-24T05:14:23.872Z,21.51
2023-08-24T05:16:53.356Z,21.61
2023-08-24T05:19:20.529Z,21.65
2023-08-24T05:21:47.482Z,21.63
2023-08-24T05:24:14.738Z,21.73
2023-08-24T05:26:41.761Z,21.89
2023-08-24T05:29:08.949Z,22.03
2023-08-24T05:31:36.179Z,22.05
2023-08-24T05:34:03.495Z,22.13
2023-08-24T05:36:33.205Z,22.26
2023-08-24T05:39:06.081Z,22.35
2023-08-24T05:41:33.694Z,22.52
2023-08-24T05:44:01.340Z,22.66
2023-08-24T05:46:28.347Z,22.67
2023-08-24T05:48:57.057Z,22.77
2023-08-24T05:51:26.633Z,22.90
2023-08-24T05:53:56.780Z,22.96
2023-08-24T05:56:27.435Z,23.05
2023-08-24T05:58:59.256Z,23.11
2023-08-24T06:01:26.323Z,23.24
2023-08-24T06:03:53.646Z,23.34
2023-08-24T06:06:20.857Z,23.40
2023-08-24T06:08:48.231Z,23.60
2023-08-24T06:11:15.178Z,23.78
2023-08-24T06:13:44.687Z,24.06
2023-08-24T06:16:14.107Z,24.02
2023-08-24T06:18:41.519Z,23.99
2023-08-24T06:21:09.788Z,24.23
2023-08-24T06:23:37.197Z,24.24
2023-08-24T06:26:05.988Z,24.30
2023-08-24T06:28:33.491Z,24.33
2023-08-24T06:31:01.339Z,24.73
2023-08-24T06:33:32.804Z,24.97
2023-08-24T06:36:00.124Z,25.20
2023-08-24T06:38:27.444Z,25.23
2023-08-24T06:40:54.600Z,25.70
2023-08-24T06:43:24.467Z,25.95
2023-08-24T06:45:51.502Z,26.55
2023-08-24T06:48:21.824Z,27.64
2023-08-24T06:50:49.111Z,27.92
2023-08-24T06:53:16.393Z,28.28
2023-08-24T06:55:45.763Z,29.39
2023-08-24T06:58:12.993Z,30.46
2023-08-24T07:00:40.968Z,30.97
2023-08-24T07:03:08.937Z,32.05
2023-08-24T07:05:39.028Z,32.88
2023-08-24T07:08:07.406Z,33.21
2023-08-24T07:10:35.680Z,34.15
2023-08-24T07:13:03.380Z,34.11
2023-08-24T07:15:35.736Z,33.96
2023-08-24T07:18:04.359Z,34.66
2023-08-24T07:20:33.624Z,34.66
2023-08-24T07:23:08.294Z,35.13
2023-08-24T07:25:35.342Z,35.59
2023-08-24T07:28:05.752Z,35.94
2023-08-24T07:30:34.590Z,35.96
2023-08-24T07:33:05.787Z,35.87
2023-08-24T07:35:36.084Z,35.68
2023-08-24T07:38:06.220Z,35.97
2023-08-24T07:40:33.794Z,35.97
2023-08-24T07:43:01.811Z,36.56
2023-08-24T07:45:29.325Z,36.71
2023-08-24T07:47:57.065Z,36.81
2023-08-24T07:50:25.240Z,37.69
2023-08-24T07:52:58.016Z,37.90
2023-08-24T07:55:26.538Z,37.49
2023-08-24T07:57:54.769Z,37.25
2023-08-24T08:00:22.078Z,37.65
2023-08-24T08:02:52.725Z,37.84
2023-08-24T08:05:24.023Z,37.33
2023-08-24T08:07:51.900Z,37.67
2023-08-24T08:10:22.229Z,37.73
2023-08-24T08:12:52.490Z,38.31
2023-08-24T08:15:19.745Z,38.75
2023-08-24T08:17:47.385Z,39.08
2023-08-24T08:20:15.455Z,38.83
2023-08-24T08:22:43.093Z,38.15
2023-08-24T08:25:13.287Z,38.49
2023-08-24T08:27:40.570Z,38.60
2023-08-24T08:30:10.330Z,38.18
2023-08-24T08:32:40.099Z,38.55
2023-08-24T08:35:07.779Z,38.32
2023-08-24T08:37:35.366Z,38.44
2023-08-24T08:40:07.253Z,38.92
2023-08-24T08:42:36.514Z,38.55
2023-08-24T08:45:05.055Z,38.50
2023-08-24T08:47:32.606Z,39.23
2023-08-24T08:50:00.902Z,38.92
2023-08-24T08:52:28.260Z,37.87
2023-08-24T08:54:55.373Z,38.61
2023-08-24T08:57:24.110Z,39.05
2023-08-24T08:59:53.340Z,38.96
2023-08-24T09:02:21.855Z,38.79
2023-08-24T09:04:52.942Z,38.95
2023-08-24T09:07:22.023Z,38.27
2023-08-24T09:09:49.233Z,38.67
2023-08-24T09:12:16.611Z,38.13
2023-08-24T09:14:46.457Z,38.24
2023-08-24T09:17:26.414Z,37.98
2023-08-24T09:19:58.840Z,38.42
2023-08-24T09:22:26.417Z,38.14
2023-08-24T09:24:56.122Z,38.07
2023-08-24T09:27:24.566Z,38.02
2023-08-24T09:29:52.981Z,37.87
2023-08-24T09:32:32.401Z,37.78
2023-08-24T09:35:09.075Z,37.45
2023-08-24T09:37:36.658Z,37.53
2023-08-24T09:40:10.960Z,37.66
2023-08-24T09:42:40.687Z,37.39
2023-08-24T09:45:11.239Z,37.49
2023-08-24T09:47:39.106Z,37.30
2023-08-24T09:50:09.642Z,37.71
2023-08-24T09:52:39.001Z,36.16
2023-08-24T09:55:07.101Z,36.34
2023-08-24T09:58:12.412Z,36.12
2023-08-24T10:00:31.535Z,35.92
2023-08-24T10:03:00.471Z,35.83
2023-08-24T10:05:41.238Z,35.82
2023-08-24T10:08:18.362Z,35.34
2023-08-24T10:10:46.392Z,35.31
2023-08-24T10:13:24.599Z,35.35
2023-08-24T10:15:52.194Z,35.78
2023-08-24T10:18:21.132Z,35.63
2023-08-24T10:20:48.521Z,35.27
2023-08-24T10:23:16.843Z,34.57
2023-08-24T10:25:45.532Z,34.68
2023-08-24T10:28:13.403Z,34.60
2023-08-24T10:30:42.309Z,34.67
2023-08-24T10:33:35.585Z,34.44
2023-08-24T10:36:05.674Z,34.23
2023-08-24T10:38:36.539Z,34.26
2023-08-24T10:41:05.841Z,34.06
2023-08-24T10:43:47.116Z,33.88
2023-08-24T10:46:23.892Z,33.97
2023-08-24T10:49:00.152Z,34.01
2023-08-24T10:51:28.221Z,34.21
2023-08-24T10:54:00.333Z,34.15
2023-08-24T10:56:33.447Z,34.05
2023-08-24T10:59:14.685Z,33.99
2023-08-24T11:01:56.073Z,33.85
2023-08-24T11:04:27.412Z,33.51
2023-08-24T11:07:00.734Z,33.10
2023-08-24T11:09:45.924Z,33.31
2023-08-24T11:12:13.430Z,33.37
2023-08-24T11:15:00.450Z,33.28
2023-08-24T11:17:33.492Z,33.49
2023-08-24T11:20:04.956Z,33.20
2023-08-24T11:22:33.480Z,32.92
2023-08-24T11:25:01.612Z,32.88
2023-08-24T11:27:29.809Z,33.04
2023-08-24T11:30:02.526Z,32.82
2023-08-24T11:32:30.264Z,32.94
2023-08-24T11:34:58.901Z,32.79
2023-08-24T11:37:27.205Z,32.84
2023-08-24T11:39:54.917Z,33.06
2023-08-24T11:42:25.303Z,33.11
2023-08-24T11:44:53.537Z,33.24
2023-08-24T11:47:25.084Z,33.24
2023-08-24T11:49:54.177Z,33.10
2023-08-24T11:52:22.091Z,33.01
2023-08-24T11:54:52.990Z,33.12
2023-08-24T11:57:20.614Z,33.16
2023-08-24T11:59:49.351Z,32.94
2023-08-24T12:02:19.178Z,32.98
2023-08-24T12:04:52.462Z,32.98
2023-08-24T12:07:21.965Z,32.96
2023-08-24T12:09:53.814Z,32.98
2023-08-24T12:12:24.853Z,32.72
2023-08-24T12:14:52.340Z,32.89
2023-08-24T12:17:20.015Z,33.02
2023-08-24T12:19:57.776Z,32.93
2023-08-24T12:22:25.711Z,32.71
2023-08-24T12:24:53.533Z,32.84
2023-08-24T12:27:21.422Z,32.74
2023-08-24T12:29:50.018Z,32.63
2023-08-24T12:32:21.058Z,32.50
2023-08-24T12:34:48.491Z,32.51
2023-08-24T12:37:15.634Z,32.63
2023-08-24T12:39:43.045Z,32.63
2023-08-24T12:42:10.662Z,32.58
2023-08-24T12:44:38.171Z,32.53
2023-08-24T12:47:05.317Z,32.49
2023-08-24T12:49:32.760Z,32.53
2023-08-24T12:51:59.810Z,32.59
2023-08-24T12:54:29.576Z,32.55
2023-08-24T12:56:59.344Z,32.65
2023-08-24T12:59:26.697Z,32.77
2023-08-24T13:01:56.137Z,32.91
2023-08-24T13:04:26.257Z,32.90
2023-08-24T13:06:53.478Z,32.97
2023-08-24T13:09:20.805Z,32.85
2023-08-24T13:11:49.890Z,32.93
2023-08-24T13:14:17.317Z,32.78
2023-08-24T13:16:44.562Z,32.63
2023-08-24T13:19:12.008Z,32.64
2023-08-24T13:21:43.487Z,32.47
2023-08-24T13:24:10.804Z,32.36
2023-08-24T13:26:39.068Z,32.38
2023-08-24T13:29:09.928Z,32.40
2023-08-24T13:31:37.458Z,32.41
2023-08-24T13:34:08.642Z,32.41
2023-08-24T13:36:38.247Z,32.26
2023-08-24T13:39:08.140Z,32.34
2023-08-24T13:41:35.167Z,32.31
2023-08-24T13:44:02.691Z,32.33
2023-08-24T13:46:29.781Z,32.28
2023-08-24T13:48:57.165Z,32.19
2023-08-24T13:51:24.197Z,32.35
2023-08-24T13:53:51.888Z,32.35
2023-08-24T13:56:19.347Z,32.31
2023-08-24T13:58:47.785Z,32.27
2023-08-24T14:01:14.716Z,32.35
2023-08-24T14:03:45.111Z,32.08
2023-08-24T14:06:12.374Z,32.12
2023-08-24T14:08:44.547Z,32.19
2023-08-24T14:11:15.157Z,32.22
2023-08-24T14:13:42.670Z,32.24
2023-08-24T14:16:09.749Z,32.24
2023-08-24T14:18:37.681Z,32.29
2023-08-24T14:21:05.097Z,32.26
2023-08-24T14:23:32.576Z,32.28
2023-08-24T14:25:59.583Z,32.24
2023-08-24T14:28:49.480Z,32.20
2023-08-24T14:31:19.702Z,32.07
2023-08-24T14:33:47.070Z,32.00
2023-08-24T14:36:16.140Z,31.95
2023-08-24T14:38:43.530Z,32.01
2023-08-24T14:41:11.485Z,32.06
2023-08-24T14:43:39.445Z,32.12
2023-08-24T14:46:07.274Z,32.19
2023-08-24T14:48:35.145Z,32.17
2023-08-24T14:51:02.906Z,32.23
2023-08-24T14:53:33.273Z,32.25
2023-08-24T14:56:00.444Z,32.27
2023-08-24T14:58:28.306Z,32.21
2023-08-24T15:00:59.153Z,32.13
2023-08-24T15:03:26.712Z,32.06
2023-08-24T15:05:58.407Z,32.01
2023-08-24T15:08:29.369Z,31.93
2023-08-24T15:10:57.695Z,31.91
2023-08-24T15:13:26.002Z,31.79
2023-08-24T15:15:58.496Z,31.72
2023-08-24T15:18:27.070Z,31.73
2023-08-24T15:20:56.284Z,31.75
2023-08-24T15:23:31.084Z,31.77
2023-08-24T15:25:59.926Z,31.63
2023-08-24T15:28:28.480Z,31.59
2023-08-24T15:30:55.870Z,31.52
2023-08-24T15:33:23.560Z,31.49
2023-08-24T15:35:50.712Z,31.41
2023-08-24T15:38:18.206Z,31.46
2023-08-24T15:40:52.195Z,31.41
2023-08-24T15:43:19.811Z,31.40
2023-08-24T15:45:47.501Z,31.32
2023-08-24T15:48:15.169Z,31.20
2023-08-24T15:50:47.369Z,31.18
2023-08-24T15:53:16.256Z,31.19
2023-08-24T15:55:43.535Z,31.13
2023-08-24T15:58:11.222Z,31.09
2023-08-24T16:00:41.927Z,31.13
2023-08-24T16:03:10.036Z,31.08
2023-08-24T16:05:37.926Z,30.99
2023-08-24T16:08:05.261Z,30.93
2023-08-24T16:10:33.292Z,30.83
2023-08-24T16:13:01.586Z,30.88
2023-08-24T16:15:29.069Z,30.80
2023-08-24T16:17:56.721Z,30.80
2023-08-24T16:20:24.179Z,30.70
2023-08-24T16:22:51.891Z,30.63
2023-08-24T16:25:21.531Z,30.58
2023-08-24T16:27:48.913Z,30.58
2023-08-24T16:30:16.672Z,30.54
2023-08-24T16:32:44.698Z,30.47
2023-08-24T16:35:12.827Z,30.43
2023-08-24T16:37:40.304Z,30.32
2023-08-24T16:40:09.840Z,30.32
2023-08-24T16:42:37.139Z,30.25
2023-08-24T16:45:04.673Z,30.22
2023-08-24T16:47:34.303Z,30.19
2023-08-24T16:50:01.180Z,30.12
2023-08-24T16:52:28.756Z,30.02
2023-08-24T16:54:56.048Z,29.93
2023-08-24T16:57:23.672Z,29.83
2023-08-24T16:59:50.840Z,29.76
2023-08-24T17:02:18.202Z,29.73
2023-08-24T17:04:45.287Z,29.64
2023-08-24T17:07:15.379Z,29.55
2023-08-24T17:09:42.347Z,29.44
2023-08-24T17:12:09.665Z,29.41
2023-08-24T17:14:36.909Z,29.37
2023-08-24T17:17:04.753Z,29.34
2023-08-24T17:19:32.378Z,29.24
2023-08-24T17:22:03.012Z,29.13
2023-08-24T17:24:30.575Z,29.03
2023-08-24T17:26:58.044Z,29.01
2023-08-24T17:29:25.445Z,28.92
2023-08-24T17:31:56.421Z,28.88
2023-08-24T17:34:24.172Z,28.76
2023-08-24T17:36:52.092Z,28.67
2023-08-24T17:39:20.281Z,28.61
2023-08-24T17:41:48.996Z,28.52
2023-08-24T17:44:16.566Z,28.44
2023-08-24T17:46:46.804Z,28.35
2023-08-24T17:49:14.269Z,28.41
2023-08-24T17:51:42.136Z,28.27
2023-08-24T17:54:09.868Z,28.19
2023-08-24T17:56:37.302Z,28.03
2023-08-24T17:59:04.733Z,27.90
2023-08-24T18:01:32.359Z,27.78
2023-08-24T18:03:59.983Z,27.70
2023-08-24T18:06:27.929Z,27.65
2023-08-24T18:08:55.450Z,27.55
2023-08-24T18:11:23.407Z,27.47
2023-08-24T18:13:51.604Z,27.44
2023-08-24T18:16:20.931Z,27.48
2023-08-24T18:18:48.526Z,27.48
2023-08-24T18:21:16.390Z,27.58
2023-08-24T18:23:44.366Z,27.52
2023-08-24T18:26:12.725Z,27.46
2023-08-24T18:28:41.845Z,27.55
2023-08-24T18:31:10.883Z,27.64
2023-08-24T18:33:38.720Z,27.66
2023-08-24T18:36:06.752Z,27.63
2023-08-24T18:38:34.934Z,27.57
2023-08-24T18:41:03.348Z,27.53
2023-08-24T18:43:31.462Z,27.54
2023-08-24T18:46:00.187Z,27.52
2023-08-24T18:48:28.376Z,27.53
2023-08-24T18:50:56.559Z,27.58
2023-08-24T18:53:24.759Z,27.48
2023-08-24T18:55:56.420Z,27.52
2023-08-24T18:58:23.830Z,27.46
2023-08-24T19:00:58.120Z,27.45
2023-08-24T19:03:25.861Z,27.40
2023-08-24T19:05:53.870Z,27.47
2023-08-24T19:08:21.656Z,27.58
2023-08-24T19:10:51.138Z,27.53
2023-08-24T19:13:21.623Z,27.53
2023-08-24T19:15:49.778Z,27.51
2023-08-24T19:18:17.858Z,27.39
2023-08-24T19:20:47.002Z,27.26
2023-08-24T19:23:17.162Z,27.18
2023-08-24T19:25:49.401Z,27.16
2023-08-24T19:28:17.184Z,27.19
2023-08-24T19:30:45.584Z,27.07
2023-08-24T19:33:13.402Z,27.05
2023-08-24T19:35:41.193Z,26.95
2023-08-24T19:38:12.028Z,26.97
2023-08-24T19:40:40.596Z,26.99
2023-08-24T19:43:10.927Z,26.95
2023-08-24T19:45:39.412Z,26.96
2023-08-24T19:48:07.886Z,26.82
2023-08-24T19:50:36.365Z,26.73
2023-08-24T19:53:08.821Z,26.66
2023-08-24T19:55:41.288Z,26.55
2023-08-24T19:58:09.077Z,26.50
2023-08-24T20:00:36.803Z,26.39
2023-08-24T20:03:06.046Z,26.24
2023-08-24T20:05:36.150Z,26.22
2023-08-24T20:08:04.775Z,26.13
2023-08-24T20:10:32.785Z,26.01
2023-08-24T20:13:02.620Z,25.94
2023-08-24T20:15:30.482Z,25.82
2023-08-24T20:17:58.256Z,25.81
2023-08-24T20:20:26.378Z,25.76
2023-08-24T20:22:54.249Z,25.79
2023-08-24T20:25:22.606Z,25.75
2023-08-24T20:27:51.051Z,25.78
2023-08-24T20:30:18.974Z,25.68
2023-08-24T20:32:46.508Z,25.63
2023-08-24T20:35:16.632Z,25.56
2023-08-24T20:37:44.210Z,25.48
2023-08-24T20:40:12.265Z,25.43
2023-08-24T20:42:41.974Z,25.42
2023-08-24T20:45:10.510Z,25.37
2023-08-24T20:47:38.206Z,25.39
2023-08-24T20:50:06.417Z,25.37
2023-08-24T20:52:34.038Z,25.31
2023-08-24T20:55:02.050Z,25.27
2023-08-24T20:57:29.415Z,25.30
2023-08-24T20:59:57.384Z,25.31
2023-08-24T21:02:24.615Z,25.23
2023-08-24T21:04:52.051Z,25.22
2023-08-24T21:07:19.149Z,25.25
2023-08-24T21:09:46.529Z,25.20
2023-08-24T21:12:13.584Z,25.23
2023-08-24T21:14:40.982Z,25.15
2023-08-24T21:17:08.096Z,25.16
2023-08-24T21:19:35.356Z,25.08
2023-08-24T21:22:02.819Z,24.93
2023-08-24T21:24:30.306Z,24.81
2023-08-24T21:26:57.669Z,24.76
2023-08-24T21:29:25.831Z,24.78
2023-08-24T21:31:57.000Z,24.75
2023-08-24T21:34:24.478Z,24.72
2023-08-24T21:36:51.500Z,24.71
2023-08-24T21:39:19.865Z,24.68
2023-08-24T21:41:46.947Z,24.69
2023-08-24T21:44:14.407Z,24.58
2023-08-24T21:46:41.814Z,24.58
2023-08-24T21:49:09.950Z,24.55
2023-08-24T21:51:39.869Z,24.41
2023-08-24T21:54:07.236Z,24.27
2023-08-24T21:56:34.297Z,24.17
2023-08-24T21:59:01.758Z,24.07
2023-08-24T22:01:28.734Z,24.01
2023-08-24T22:03:58.707Z,23.96
2023-08-24T22:06:25.784Z,23.86
2023-08-24T22:08:53.061Z,23.75
2023-08-24T22:11:22.729Z,23.69
2023-08-24T22:13:53.493Z,23.60
2023-08-24T22:16:27.169Z,23.58
2023-08-24T22:18:56.808Z,23.49
2023-08-24T22:21:23.726Z,23.47
2023-08-24T22:23:51.698Z,23.42
2023-08-24T22:26:18.989Z,23.30
2023-08-24T22:28:46.507Z,23.19
2023-08-24T22:31:13.609Z,23.13
2023-08-24T22:33:42.819Z,23.14
2023-08-24T22:36:10.593Z,23.11
2023-08-24T22:38:40.362Z,23.05
2023-08-24T22:41:10.077Z,22.97
2023-08-24T22:43:37.462Z,22.91
2023-08-24T22:46:06.981Z,22.86
2023-08-24T22:48:34.406Z,22.83
2023-08-24T22:51:03.134Z,22.80
2023-08-24T22:53:30.501Z,22.80
2023-08-24T22:55:57.429Z,22.82
2023-08-24T22:58:24.617Z,22.78
2023-08-24T23:00:51.468Z,22.81
2023-08-24T23:03:21.112Z,22.76
2023-08-24T23:05:48.171Z,22.75
2023-08-24T23:08:15.676Z,22.67
2023-08-24T23:10:43.709Z,22.59
2023-08-24T23:13:11.031Z,22.52
2023-08-24T23:15:38.057Z,22.47
2023-08-24T23:18:08.232Z,22.45
2023-08-24T23:20:35.947Z,22.40
2023-08-24T23:23:03.318Z,22.33
2023-08-24T23:25:30.259Z,22.42
2023-08-24T23:27:57.589Z,22.40
2023-08-24T23:30:26.793Z,22.33
2023-08-24T23:32:54.492Z,22.24
2023-08-24T23:35:25.047Z,22.19
2023-08-24T23:37:52.688Z,22.16
2023-08-24T23:40:23.008Z,22.14
2023-08-24T23:42:56.372Z,22.09
2023-08-24T23:45:23.389Z,22.09
2023-08-24T23:47:50.755Z,22.05
2023-08-24T23:50:17.688Z,22.02
2023-08-24T23:52:50.120Z,22.03
2023-08-24T23:55:18.297Z,22.07
2023-08-24T23:57:45.655Z,22.05
